sensor_id;sensor_type;location;lat;lon;timestamp;pressure;altitude;pressure_sealevel;temperature;humidity
14242;BME280;7205;50.864;12.766;2023-05-22T00:01:00;97567.16;;;17.70;72.01
14242;BME280;7205;50.864;12.766;2023-05-22T00:03:29;97558.31;;;17.69;72.02
14242;BME280;7205;50.864;12.766;2023-05-22T00:05:58;97563.66;;;17.69;71.98
14242;BME280;7205;50.864;12.766;2023-05-22T00:08:26;97563.66;;;17.69;71.93
14242;BME280;7205;50.864;12.766;2023-05-22T00:10:54;97556.69;;;17.68;72.11
14242;BME280;7205;50.864;12.766;2023-05-22T00:13:20;97553.78;;;17.70;72.17
14242;BME280;7205;50.864;12.766;2023-05-22T00:15:47;97552.13;;;17.69;72.13
14242;BME280;7205;50.864;12.766;2023-05-22T00:18:15;97551.34;;;17.68;72.17
14242;BME280;7205;50.864;12.766;2023-05-22T00:20:42;97551.34;;;17.68;72.26
14242;BME280;7205;50.864;12.766;2023-05-22T00:23:11;97543.34;;;17.68;72.28
14242;BME280;7205;50.864;12.766;2023-05-22T00:25:40;97548.44;;;17.70;72.57
14242;BME280;7205;50.864;12.766;2023-05-22T00:28:07;97542.88;;;17.71;72.67
14242;BME280;7205;50.864;12.766;2023-05-22T00:30:35;97548.81;;;17.73;72.76
14242;BME280;7205;50.864;12.766;2023-05-22T00:33:04;97547.53;;;17.76;72.73
14242;BME280;7205;50.864;12.766;2023-05-22T00:35:32;97541.16;;;17.77;72.79
14242;BME280;7205;50.864;12.766;2023-05-22T00:38:02;97537.47;;;17.78;72.60
14242;BME280;7205;50.864;12.766;2023-05-22T00:40:29;97536.63;;;17.77;72.83
14242;BME280;7205;50.864;12.766;2023-05-22T00:42:58;97543.63;;;17.78;72.57
14242;BME280;7205;50.864;12.766;2023-05-22T00:45:26;97543.63;;;17.78;72.74
14242;BME280;7205;50.864;12.766;2023-05-22T00:47:53;97534.56;;;17.79;72.84
14242;BME280;7205;50.864;12.766;2023-05-22T00:50:22;97531.91;;;17.79;72.82
14242;BME280;7205;50.864;12.766;2023-05-22T00:52:49;97533.50;;;17.80;72.59
14242;BME280;7205;50.864;12.766;2023-05-22T00:55:16;97533.75;;;17.79;72.55
14242;BME280;7205;50.864;12.766;2023-05-22T00:57:43;97528.41;;;17.79;72.34
14242;BME280;7205;50.864;12.766;2023-05-22T01:00:16;97527.00;;;17.76;72.33
14242;BME280;7205;50.864;12.766;2023-05-22T01:02:44;97534.41;;;17.74;72.48
14242;BME280;7205;50.864;12.766;2023-05-22T01:05:13;97533.00;;;17.72;72.31
14242;BME280;7205;50.864;12.766;2023-05-22T01:07:42;97535.09;;;17.70;72.56
14242;BME280;7205;50.864;12.766;2023-05-22T01:10:10;97527.72;;;17.65;72.70
14242;BME280;7205;50.864;12.766;2023-05-22T01:12:43;97530.84;;;17.62;72.71
14242;BME280;7205;50.864;12.766;2023-05-22T01:15:20;97528.63;;;17.59;72.75
14242;BME280;7205;50.864;12.766;2023-05-22T01:17:54;97531.28;;;17.59;72.66
14242;BME280;7205;50.864;12.766;2023-05-22T01:20:31;97534.41;;;17.56;72.69
14242;BME280;7205;50.864;12.766;2023-05-22T01:23:30;97535.06;;;17.51;72.74
14242;BME280;7205;50.864;12.766;2023-05-22T01:26:31;97536.78;;;17.46;72.65
14242;BME280;7205;50.864;12.766;2023-05-22T01:29:20;97527.97;;;17.39;72.94
14242;BME280;7205;50.864;12.766;2023-05-22T01:31:54;97542.38;;;17.38;73.00
14242;BME280;7205;50.864;12.766;2023-05-22T01:34:23;97542.78;;;17.35;73.16
14242;BME280;7205;50.864;12.766;2023-05-22T01:36:53;97540.78;;;17.30;73.47
14242;BME280;7205;50.864;12.766;2023-05-22T01:39:21;97538.78;;;17.26;73.65
14242;BME280;7205;50.864;12.766;2023-05-22T01:41:49;97543.97;;;17.21;73.74
14242;BME280;7205;50.864;12.766;2023-05-22T01:44:15;97542.75;;;17.17;74.13
14242;BME280;7205;50.864;12.766;2023-05-22T01:46:42;97540.31;;;17.15;74.13
14242;BME280;7205;50.864;12.766;2023-05-22T01:49:10;97539.94;;;17.12;74.25
14242;BME280;7205;50.864;12.766;2023-05-22T01:51:44;97539.78;;;17.07;74.59
14242;BME280;7205;50.864;12.766;2023-05-22T01:54:17;97539.38;;;17.03;74.72
14242;BME280;7205;50.864;12.766;2023-05-22T01:56:48;97546.22;;;16.99;74.99
14242;BME280;7205;50.864;12.766;2023-05-22T01:59:24;97545.81;;;16.96;75.18
14242;BME280;7205;50.864;12.766;2023-05-22T02:01:57;97551.59;;;16.93;75.39
14242;BME280;7205;50.864;12.766;2023-05-22T02:04:29;97559.78;;;16.91;75.54
14242;BME280;7205;50.864;12.766;2023-05-22T02:06:57;97549.56;;;16.88;76.00
14242;BME280;7205;50.864;12.766;2023-05-22T02:09:27;97540.16;;;16.86;76.25
14242;BME280;7205;50.864;12.766;2023-05-22T02:11:55;97546.94;;;16.82;76.41
14242;BME280;7205;50.864;12.766;2023-05-22T02:14:23;97551.91;;;16.78;76.26
14242;BME280;7205;50.864;12.766;2023-05-22T02:16:51;97542.72;;;16.74;76.86
14242;BME280;7205;50.864;12.766;2023-05-22T02:19:17;97549.28;;;16.72;76.82
14242;BME280;7205;50.864;12.766;2023-05-22T02:21:47;97544.59;;;16.67;77.24
14242;BME280;7205;50.864;12.766;2023-05-22T02:24:13;97546.06;;;16.63;77.22
14242;BME280;7205;50.864;12.766;2023-05-22T02:26:41;97545.88;;;16.58;77.43
14242;BME280;7205;50.864;12.766;2023-05-22T02:29:08;97547.16;;;16.56;77.77
14242;BME280;7205;50.864;12.766;2023-05-22T02:31:35;97543.25;;;16.52;78.01
14242;BME280;7205;50.864;12.766;2023-05-22T02:34:01;97537.75;;;16.47;78.30
14242;BME280;7205;50.864;12.766;2023-05-22T02:36:29;97540.59;;;16.45;78.69
14242;BME280;7205;50.864;12.766;2023-05-22T02:38:58;97539.38;;;16.41;78.87
14242;BME280;7205;50.864;12.766;2023-05-22T02:41:30;97530.22;;;16.37;79.25
14242;BME280;7205;50.864;12.766;2023-05-22T02:43:57;97533.53;;;16.33;79.08
14242;BME280;7205;50.864;12.766;2023-05-22T02:46:24;97530.47;;;16.29;79.46
14242;BME280;7205;50.864;12.766;2023-05-22T02:48:51;97524.75;;;16.25;79.58
14242;BME280;7205;50.864;12.766;2023-05-22T02:51:18;97524.34;;;16.22;79.93
14242;BME280;7205;50.864;12.766;2023-05-22T02:53:45;97522.91;;;16.19;80.41
14242;BME280;7205;50.864;12.766;2023-05-22T02:56:13;97529.72;;;16.15;80.63
14242;BME280;7205;50.864;12.766;2023-05-22T02:58:40;97521.09;;;16.13;80.73
14242;BME280;7205;50.864;12.766;2023-05-22T03:01:07;97526.66;;;16.12;81.17
14242;BME280;7205;50.864;12.766;2023-05-22T03:03:35;97530.31;;;16.11;81.36
14242;BME280;7205;50.864;12.766;2023-05-22T03:06:02;97520.50;;;16.11;81.75
14242;BME280;7205;50.864;12.766;2023-05-22T03:08:29;97528.72;;;16.10;81.60
14242;BME280;7205;50.864;12.766;2023-05-22T03:10:57;97524.41;;;16.09;81.94
14242;BME280;7205;50.864;12.766;2023-05-22T03:13:25;97516.44;;;16.09;81.91
14242;BME280;7205;50.864;12.766;2023-05-22T03:15:52;97521.75;;;16.09;82.29
14242;BME280;7205;50.864;12.766;2023-05-22T03:18:19;97521.53;;;16.10;82.29
14242;BME280;7205;50.864;12.766;2023-05-22T03:20:47;97522.34;;;16.11;82.64
14242;BME280;7205;50.864;12.766;2023-05-22T03:23:14;97523.16;;;16.11;82.51
14242;BME280;7205;50.864;12.766;2023-05-22T03:25:40;97528.28;;;16.13;82.96
14242;BME280;7205;50.864;12.766;2023-05-22T03:28:07;97520.88;;;16.15;83.06
14242;BME280;7205;50.864;12.766;2023-05-22T03:30:42;97518.00;;;16.16;83.07
14242;BME280;7205;50.864;12.766;2023-05-22T03:33:15;97516.78;;;16.19;83.07
14242;BME280;7205;50.864;12.766;2023-05-22T03:35:42;97510.84;;;16.17;83.42
14242;BME280;7205;50.864;12.766;2023-05-22T03:38:10;97516.78;;;16.19;83.22
14242;BME280;7205;50.864;12.766;2023-05-22T03:40:36;97510.03;;;16.16;83.33
14242;BME280;7205;50.864;12.766;2023-05-22T03:43:03;97516.19;;;16.17;83.65
14242;BME280;7205;50.864;12.766;2023-05-22T03:45:30;97503.88;;;16.16;83.23
14242;BME280;7205;50.864;12.766;2023-05-22T03:47:59;97506.53;;;16.22;83.21
14242;BME280;7205;50.864;12.766;2023-05-22T03:50:26;97513.03;;;16.26;83.37
14242;BME280;7205;50.864;12.766;2023-05-22T03:52:52;97503.00;;;16.28;83.57
14242;BME280;7205;50.864;12.766;2023-05-22T03:55:19;97504.78;;;16.34;83.81
14242;BME280;7205;50.864;12.766;2023-05-22T03:57:46;97503.13;;;16.40;83.92
14242;BME280;7205;50.864;12.766;2023-05-22T04:00:13;97505.75;;;16.47;84.11
14242;BME280;7205;50.864;12.766;2023-05-22T04:02:43;97506.16;;;16.50;84.12
14242;BME280;7205;50.864;12.766;2023-05-22T04:05:13;97510.22;;;16.59;83.94
14242;BME280;7205;50.864;12.766;2023-05-22T04:07:40;97498.06;;;16.63;83.85
14242;BME280;7205;50.864;12.766;2023-05-22T04:10:07;97499.66;;;16.71;83.75
14242;BME280;7205;50.864;12.766;2023-05-22T04:12:36;97499.81;;;16.76;83.98
14242;BME280;7205;50.864;12.766;2023-05-22T04:15:04;97498.50;;;16.85;83.46
14242;BME280;7205;50.864;12.766;2023-05-22T04:17:32;97494.16;;;16.90;83.44
14242;BME280;7205;50.864;12.766;2023-05-22T04:19:59;97493.06;;;16.98;83.30
14242;BME280;7205;50.864;12.766;2023-05-22T04:22:27;97504.06;;;17.08;83.11
14242;BME280;7205;50.864;12.766;2023-05-22T04:24:55;97506.44;;;17.16;83.07
14242;BME280;7205;50.864;12.766;2023-05-22T04:27:23;97493.88;;;17.23;82.68
14242;BME280;7205;50.864;12.766;2023-05-22T04:29:50;97496.25;;;17.31;82.56
14242;BME280;7205;50.864;12.766;2023-05-22T04:32:18;97497.56;;;17.40;82.51
14242;BME280;7205;50.864;12.766;2023-05-22T04:34:47;97500.56;;;17.50;82.17
14242;BME280;7205;50.864;12.766;2023-05-22T04:37:15;97496.56;;;17.59;81.76
14242;BME280;7205;50.864;12.766;2023-05-22T04:39:44;97497.47;;;17.71;81.80
14242;BME280;7205;50.864;12.766;2023-05-22T04:42:11;97496.94;;;17.81;81.55
14242;BME280;7205;50.864;12.766;2023-05-22T04:44:39;97497.22;;;17.91;81.18
14242;BME280;7205;50.864;12.766;2023-05-22T04:47:06;97498.09;;;18.03;80.68
14242;BME280;7205;50.864;12.766;2023-05-22T04:49:36;97495.13;;;18.11;80.14
14242;BME280;7205;50.864;12.766;2023-05-22T04:52:05;97497.22;;;18.20;79.67
14242;BME280;7205;50.864;12.766;2023-05-22T04:54:33;97493.22;;;18.29;78.94
14242;BME280;7205;50.864;12.766;2023-05-22T04:57:02;97491.84;;;18.38;78.41
14242;BME280;7205;50.864;12.766;2023-05-22T04:59:30;97495.06;;;18.47;77.94
14242;BME280;7205;50.864;12.766;2023-05-22T05:01:57;97492.84;;;18.55;77.59
14242;BME280;7205;50.864;12.766;2023-05-22T05:04:24;97489.63;;;18.65;77.20
14242;BME280;7205;50.864;12.766;2023-05-22T05:06:52;97482.88;;;18.74;76.64
14242;BME280;7205;50.864;12.766;2023-05-22T05:09:19;97489.31;;;18.85;76.43
14242;BME280;7205;50.864;12.766;2023-05-22T05:11:46;97488.50;;;18.96;75.99
14242;BME280;7205;50.864;12.766;2023-05-22T05:14:15;97485.03;;;19.07;75.87
14242;BME280;7205;50.864;12.766;2023-05-22T05:16:42;97493.28;;;19.17;75.35
14242;BME280;7205;50.864;12.766;2023-05-22T05:19:09;97486.91;;;19.29;74.52
14242;BME280;7205;50.864;12.766;2023-05-22T05:21:37;97493.31;;;19.40;74.23
14242;BME280;7205;50.864;12.766;2023-05-22T05:24:04;97487.13;;;19.51;73.29
14242;BME280;7205;50.864;12.766;2023-05-22T05:26:31;97483.03;;;19.60;72.71
14242;BME280;7205;50.864;12.766;2023-05-22T05:28:58;97488.84;;;19.68;71.85
14242;BME280;7205;50.864;12.766;2023-05-22T05:31:34;97492.22;;;19.75;70.92
14242;BME280;7205;50.864;12.766;2023-05-22T05:34:33;97493.34;;;19.79;70.33
14242;BME280;7205;50.864;12.766;2023-05-22T05:37:06;97491.59;;;19.85;69.89
14242;BME280;7205;50.864;12.766;2023-05-22T05:39:35;97491.47;;;19.91;70.04
14242;BME280;7205;50.864;12.766;2023-05-22T05:42:05;97490.53;;;19.98;69.62
14242;BME280;7205;50.864;12.766;2023-05-22T05:44:32;97497.63;;;20.04;69.30
14242;BME280;7205;50.864;12.766;2023-05-22T05:47:00;97491.28;;;20.10;69.06
14242;BME280;7205;50.864;12.766;2023-05-22T05:49:27;97495.75;;;20.16;68.65
14242;BME280;7205;50.864;12.766;2023-05-22T05:51:54;97491.06;;;20.23;68.45
14242;BME280;7205;50.864;12.766;2023-05-22T05:54:22;97488.22;;;20.29;68.35
14242;BME280;7205;50.864;12.766;2023-05-22T05:56:52;97493.19;;;20.37;68.22
14242;BME280;7205;50.864;12.766;2023-05-22T05:59:19;97487.44;;;20.45;67.91
14242;BME280;7205;50.864;12.766;2023-05-22T06:01:58;97499.41;;;20.54;67.47
14242;BME280;7205;50.864;12.766;2023-05-22T06:04:30;97493.66;;;20.62;66.80
14242;BME280;7205;50.864;12.766;2023-05-22T06:06:58;97494.91;;;20.71;66.56
14242;BME280;7205;50.864;12.766;2023-05-22T06:09:37;97488.88;;;20.81;66.16
14242;BME280;7205;50.864;12.766;2023-05-22T06:12:24;97488.47;;;20.89;65.29
14242;BME280;7205;50.864;12.766;2023-05-22T06:14:52;97489.94;;;20.96;64.68
14242;BME280;7205;50.864;12.766;2023-05-22T06:17:19;97494.34;;;21.02;64.20
14242;BME280;7205;50.864;12.766;2023-05-22T06:19:48;97491.25;;;21.10;63.72
14242;BME280;7205;50.864;12.766;2023-05-22T06:22:16;97490.03;;;21.18;63.42
14242;BME280;7205;50.864;12.766;2023-05-22T06:24:45;97481.81;;;21.25;63.19
14242;BME280;7205;50.864;12.766;2023-05-22T06:27:16;97482.47;;;21.32;63.13
14242;BME280;7205;50.864;12.766;2023-05-22T06:29:43;97486.81;;;21.38;62.55
14242;BME280;7205;50.864;12.766;2023-05-22T06:32:10;97483.13;;;21.44;62.08
14242;BME280;7205;50.864;12.766;2023-05-22T06:34:39;97482.75;;;21.52;62.07
14242;BME280;7205;50.864;12.766;2023-05-22T06:37:08;97486.03;;;21.59;62.06
14242;BME280;7205;50.864;12.766;2023-05-22T06:39:40;97484.00;;;21.66;61.90
14242;BME280;7205;50.864;12.766;2023-05-22T06:42:31;97488.13;;;21.73;61.38
14242;BME280;7205;50.864;12.766;2023-05-22T06:45:18;97480.69;;;21.80;61.37
14242;BME280;7205;50.864;12.766;2023-05-22T06:47:59;97490.47;;;21.86;60.79
14242;BME280;7205;50.864;12.766;2023-05-22T06:50:26;97484.91;;;21.93;60.77
14242;BME280;7205;50.864;12.766;2023-05-22T06:52:54;97484.16;;;21.97;60.42
14242;BME280;7205;50.864;12.766;2023-05-22T06:55:21;97490.72;;;22.06;59.89
14242;BME280;7205;50.864;12.766;2023-05-22T06:57:59;97490.53;;;22.13;59.65
14242;BME280;7205;50.864;12.766;2023-05-22T07:00:27;97488.19;;;22.21;59.32
14242;BME280;7205;50.864;12.766;2023-05-22T07:03:14;97489.38;;;22.30;58.87
14242;BME280;7205;50.864;12.766;2023-05-22T07:06:05;97490.28;;;22.41;58.98
14242;BME280;7205;50.864;12.766;2023-05-22T07:08:34;97489.91;;;22.54;58.62
14242;BME280;7205;50.864;12.766;2023-05-22T07:11:01;97495.13;;;22.66;58.11
14242;BME280;7205;50.864;12.766;2023-05-22T07:13:31;97492.03;;;22.79;57.91
14242;BME280;7205;50.864;12.766;2023-05-22T07:15:58;97490.81;;;22.96;57.94
14242;BME280;7205;50.864;12.766;2023-05-22T07:18:25;97486.13;;;23.13;57.18
14242;BME280;7205;50.864;12.766;2023-05-22T07:20:52;97487.88;;;23.29;56.31
14242;BME280;7205;50.864;12.766;2023-05-22T07:23:21;97485.81;;;23.46;55.89
14242;BME280;7205;50.864;12.766;2023-05-22T07:25:50;97486.75;;;23.62;55.13
14242;BME280;7205;50.864;12.766;2023-05-22T07:28:20;97484.13;;;23.77;54.09
14242;BME280;7205;50.864;12.766;2023-05-22T07:30:52;97492.28;;;23.92;53.83
14242;BME280;7205;50.864;12.766;2023-05-22T07:33:19;97478.59;;;24.09;53.05
14242;BME280;7205;50.864;12.766;2023-05-22T07:35:47;97477.84;;;24.23;52.05
14242;BME280;7205;50.864;12.766;2023-05-22T07:38:14;97485.19;;;24.38;51.65
14242;BME280;7205;50.864;12.766;2023-05-22T07:40:51;97479.00;;;24.52;50.95
14242;BME280;7205;50.864;12.766;2023-05-22T07:43:18;97476.31;;;24.67;51.06
14242;BME280;7205;50.864;12.766;2023-05-22T07:45:46;97482.03;;;24.81;50.30
14242;BME280;7205;50.864;12.766;2023-05-22T07:48:15;97476.38;;;24.93;49.71
14242;BME280;7205;50.864;12.766;2023-05-22T07:50:43;97469.34;;;25.02;49.08
14242;BME280;7205;50.864;12.766;2023-05-22T07:53:10;97475.25;;;25.14;48.58
14242;BME280;7205;50.864;12.766;2023-05-22T07:55:40;97469.84;;;25.24;48.27
14242;BME280;7205;50.864;12.766;2023-05-22T07:58:08;97473.63;;;25.33;47.92
14242;BME280;7205;50.864;12.766;2023-05-22T08:00:39;97475.25;;;25.39;47.65
14242;BME280;7205;50.864;12.766;2023-05-22T08:03:06;97463.91;;;25.42;47.62
14242;BME280;7205;50.864;12.766;2023-05-22T08:05:32;97470.09;;;25.47;48.01
14242;BME280;7205;50.864;12.766;2023-05-22T08:07:59;97468.47;;;25.51;47.67
14242;BME280;7205;50.864;12.766;2023-05-22T08:10:27;97469.53;;;25.55;47.71
14242;BME280;7205;50.864;12.766;2023-05-22T08:12:54;97466.84;;;25.55;47.74
14242;BME280;7205;50.864;12.766;2023-05-22T08:15:24;97472.25;;;25.55;47.35
14242;BME280;7205;50.864;12.766;2023-05-22T08:17:51;97460.09;;;25.53;47.63
14242;BME280;7205;50.864;12.766;2023-05-22T08:20:17;97464.97;;;25.51;47.61
14242;BME280;7205;50.864;12.766;2023-05-22T08:22:44;97465.50;;;25.53;47.63
14242;BME280;7205;50.864;12.766;2023-05-22T08:25:11;97465.50;;;25.58;47.69
14242;BME280;7205;50.864;12.766;2023-05-22T08:27:38;97458.97;;;25.64;47.73
14242;BME280;7205;50.864;12.766;2023-05-22T08:30:06;97460.84;;;25.73;47.57
14242;BME280;7205;50.864;12.766;2023-05-22T08:32:34;97467.03;;;25.79;47.01
14242;BME280;7205;50.864;12.766;2023-05-22T08:35:01;97463.25;;;25.85;46.50
14242;BME280;7205;50.864;12.766;2023-05-22T08:37:28;97463.50;;;25.88;46.48
14242;BME280;7205;50.864;12.766;2023-05-22T08:39:55;97467.25;;;25.92;45.63
14242;BME280;7205;50.864;12.766;2023-05-22T08:42:21;97465.66;;;25.91;45.54
14242;BME280;7205;50.864;12.766;2023-05-22T08:44:48;97468.34;;;25.96;45.22
14242;BME280;7205;50.864;12.766;2023-05-22T08:47:15;97465.91;;;26.05;45.38
14242;BME280;7205;50.864;12.766;2023-05-22T08:49:48;97456.09;;;26.14;45.61
14242;BME280;7205;50.864;12.766;2023-05-22T08:52:21;97454.97;;;26.25;45.50
14242;BME280;7205;50.864;12.766;2023-05-22T08:54:51;97455.47;;;26.32;44.61
14242;BME280;7205;50.864;12.766;2023-05-22T08:57:19;97452.97;;;26.41;44.08
14242;BME280;7205;50.864;12.766;2023-05-22T08:59:47;97448.59;;;26.45;44.01
14242;BME280;7205;50.864;12.766;2023-05-22T09:02:15;97447.53;;;26.46;43.83
14242;BME280;7205;50.864;12.766;2023-05-22T09:04:42;97440.47;;;26.45;43.89
14242;BME280;7205;50.864;12.766;2023-05-22T09:07:10;97442.13;;;26.46;43.54
14242;BME280;7205;50.864;12.766;2023-05-22T09:09:38;97443.72;;;26.47;43.66
14242;BME280;7205;50.864;12.766;2023-05-22T09:12:06;97441.53;;;26.49;43.21
14242;BME280;7205;50.864;12.766;2023-05-22T09:14:37;97433.13;;;26.50;43.66
14242;BME280;7205;50.864;12.766;2023-05-22T09:17:05;97436.06;;;26.59;43.70
14242;BME280;7205;50.864;12.766;2023-05-22T09:19:31;97431.94;;;26.66;43.18
14242;BME280;7205;50.864;12.766;2023-05-22T09:22:01;97434.34;;;26.73;42.71
14242;BME280;7205;50.864;12.766;2023-05-22T09:26:55;97430.72;;;26.87;43.02
14242;BME280;7205;50.864;12.766;2023-05-22T09:29:21;97429.31;;;26.90;43.20
14242;BME280;7205;50.864;12.766;2023-05-22T09:31:48;97417.41;;;26.91;43.59
14242;BME280;7205;50.864;12.766;2023-05-22T09:34:16;97423.56;;;26.96;44.35
14242;BME280;7205;50.864;12.766;2023-05-22T09:36:43;97428.16;;;27.01;44.59
14242;BME280;7205;50.864;12.766;2023-05-22T09:39:10;97429.72;;;27.07;44.37
14242;BME280;7205;50.864;12.766;2023-05-22T09:41:38;97431.56;;;27.11;43.17
14242;BME280;7205;50.864;12.766;2023-05-22T09:44:13;97424.00;;;27.08;42.81
14242;BME280;7205;50.864;12.766;2023-05-22T09:46:41;97426.66;;;27.13;42.88
14242;BME280;7205;50.864;12.766;2023-05-22T09:49:09;97432.97;;;27.09;41.61
14242;BME280;7205;50.864;12.766;2023-05-22T09:51:38;97416.72;;;27.04;40.61
14242;BME280;7205;50.864;12.766;2023-05-22T09:54:07;97417.56;;;26.99;40.40
14242;BME280;7205;50.864;12.766;2023-05-22T09:56:37;97417.56;;;26.99;40.55
14242;BME280;7205;50.864;12.766;2023-05-22T09:59:07;97416.19;;;27.02;40.55
14242;BME280;7205;50.864;12.766;2023-05-22T10:01:37;97420.53;;;27.03;39.96
14242;BME280;7205;50.864;12.766;2023-05-22T10:04:06;97406.47;;;27.01;39.84
14242;BME280;7205;50.864;12.766;2023-05-22T10:06:34;97424.34;;;27.02;39.86
14242;BME280;7205;50.864;12.766;2023-05-22T10:09:04;97412.72;;;26.96;39.84
14242;BME280;7205;50.864;12.766;2023-05-22T10:11:34;97411.41;;;26.94;40.34
14242;BME280;7205;50.864;12.766;2023-05-22T10:14:02;97411.94;;;26.96;40.55
14242;BME280;7205;50.864;12.766;2023-05-22T10:16:29;97408.06;;;27.02;40.16
14242;BME280;7205;50.864;12.766;2023-05-22T10:18:59;97406.41;;;27.06;39.87
14242;BME280;7205;50.864;12.766;2023-05-22T10:21:27;97406.63;;;27.09;39.97
14242;BME280;7205;50.864;12.766;2023-05-22T10:23:56;97413.09;;;27.13;39.98
14242;BME280;7205;50.864;12.766;2023-05-22T10:26:27;97406.38;;;27.11;40.09
14242;BME280;7205;50.864;12.766;2023-05-22T10:28:58;97405.03;;;27.08;39.61
14242;BME280;7205;50.864;12.766;2023-05-22T10:31:31;97394.75;;;27.05;39.92
14242;BME280;7205;50.864;12.766;2023-05-22T10:34:26;97406.47;;;27.01;39.74
14242;BME280;7205;50.864;12.766;2023-05-22T10:37:04;97402.41;;;26.98;39.45
14242;BME280;7205;50.864;12.766;2023-05-22T10:39:42;97393.44;;;26.98;39.22
14242;BME280;7205;50.864;12.766;2023-05-22T10:42:12;97401.09;;;26.96;39.32
14242;BME280;7205;50.864;12.766;2023-05-22T10:44:40;97384.88;;;26.91;39.33
14242;BME280;7205;50.864;12.766;2023-05-22T10:47:08;97393.50;;;26.93;39.79
14242;BME280;7205;50.864;12.766;2023-05-22T10:49:42;97403.81;;;26.96;39.96
14242;BME280;7205;50.864;12.766;2023-05-22T10:52:10;97399.94;;;27.02;38.66
14242;BME280;7205;50.864;12.766;2023-05-22T10:54:39;97399.97;;;26.97;38.82
14242;BME280;7205;50.864;12.766;2023-05-22T10:57:10;97403.56;;;26.92;38.95
14242;BME280;7205;50.864;12.766;2023-05-22T10:59:39;97391.94;;;26.87;39.11
14242;BME280;7205;50.864;12.766;2023-05-22T11:02:18;97399.59;;;26.80;39.21
14242;BME280;7205;50.864;12.766;2023-05-22T11:04:46;97395.59;;;26.72;39.20
14242;BME280;7205;50.864;12.766;2023-05-22T11:07:14;97396.72;;;26.66;39.25
14242;BME280;7205;50.864;12.766;2023-05-22T11:09:41;97394.31;;;26.60;39.11
14242;BME280;7205;50.864;12.766;2023-05-22T11:12:22;97388.06;;;26.59;39.27
14242;BME280;7205;50.864;12.766;2023-05-22T11:14:51;97385.31;;;26.64;39.20
14242;BME280;7205;50.864;12.766;2023-05-22T11:17:22;97390.72;;;26.69;39.34
14242;BME280;7205;50.864;12.766;2023-05-22T11:20:02;97383.38;;;26.75;39.18
14242;BME280;7205;50.864;12.766;2023-05-22T11:22:35;97380.03;;;26.83;38.36
14242;BME280;7205;50.864;12.766;2023-05-22T11:25:05;97378.09;;;26.88;38.45
14242;BME280;7205;50.864;12.766;2023-05-22T11:27:32;97370.75;;;26.94;38.07
14242;BME280;7205;50.864;12.766;2023-05-22T11:30:02;97371.47;;;26.99;37.88
14242;BME280;7205;50.864;12.766;2023-05-22T11:32:29;97373.88;;;27.06;37.96
14242;BME280;7205;50.864;12.766;2023-05-22T11:34:56;97363.75;;;27.11;37.63
14242;BME280;7205;50.864;12.766;2023-05-22T11:37:24;97364.75;;;27.21;37.51
14242;BME280;7205;50.864;12.766;2023-05-22T11:39:54;97358.72;;;27.29;36.83
14242;BME280;7205;50.864;12.766;2023-05-22T11:42:22;97356.50;;;27.36;37.03
14242;BME280;7205;50.864;12.766;2023-05-22T11:44:49;97354.72;;;27.45;37.13
14242;BME280;7205;50.864;12.766;2023-05-22T11:47:16;97363.28;;;27.57;37.28
14242;BME280;7205;50.864;12.766;2023-05-22T11:49:43;97357.13;;;27.70;37.11
14242;BME280;7205;50.864;12.766;2023-05-22T11:52:09;97361.41;;;27.76;36.37
14242;BME280;7205;50.864;12.766;2023-05-22T11:54:38;97356.22;;;27.79;36.90
14242;BME280;7205;50.864;12.766;2023-05-22T11:57:08;97359.44;;;27.81;36.12
14242;BME280;7205;50.864;12.766;2023-05-22T11:59:35;97359.16;;;27.83;35.52
14242;BME280;7205;50.864;12.766;2023-05-22T12:02:01;97354.56;;;27.78;35.67
14242;BME280;7205;50.864;12.766;2023-05-22T12:04:28;97352.22;;;27.72;35.38
14242;BME280;7205;50.864;12.766;2023-05-22T12:06:55;97354.00;;;27.63;35.22
14242;BME280;7205;50.864;12.766;2023-05-22T12:09:22;97347.59;;;27.54;35.22
14242;BME280;7205;50.864;12.766;2023-05-22T12:11:53;97345.00;;;27.44;35.79
14242;BME280;7205;50.864;12.766;2023-05-22T12:14:24;97348.13;;;27.32;35.63
14242;BME280;7205;50.864;12.766;2023-05-22T12:16:51;97353.38;;;27.18;35.50
14242;BME280;7205;50.864;12.766;2023-05-22T12:19:18;97342.72;;;27.03;35.50
14242;BME280;7205;50.864;12.766;2023-05-22T12:21:45;97341.22;;;26.92;35.79
14242;BME280;7205;50.864;12.766;2023-05-22T12:24:11;97337.19;;;26.85;35.88
14242;BME280;7205;50.864;12.766;2023-05-22T12:26:38;97340.81;;;26.75;35.89
14242;BME280;7205;50.864;12.766;2023-05-22T12:29:07;97338.47;;;26.64;36.03
14242;BME280;7205;50.864;12.766;2023-05-22T12:31:34;97338.50;;;26.59;36.61
14242;BME280;7205;50.864;12.766;2023-05-22T12:34:04;97339.88;;;26.56;36.63
14242;BME280;7205;50.864;12.766;2023-05-22T12:36:33;97329.38;;;26.50;36.51
14242;BME280;7205;50.864;12.766;2023-05-22T12:39:00;97331.09;;;26.41;36.89
14242;BME280;7205;50.864;12.766;2023-05-22T12:41:27;97330.31;;;26.35;37.63
14242;BME280;7205;50.864;12.766;2023-05-22T12:43:54;97334.94;;;26.30;37.95
14242;BME280;7205;50.864;12.766;2023-05-22T12:46:22;97330.94;;;26.27;37.74
14242;BME280;7205;50.864;12.766;2023-05-22T12:48:49;97327.97;;;26.24;37.82
14242;BME280;7205;50.864;12.766;2023-05-22T12:51:16;97330.16;;;26.22;37.59
14242;BME280;7205;50.864;12.766;2023-05-22T12:53:42;97326.63;;;26.21;38.12
14242;BME280;7205;50.864;12.766;2023-05-22T12:56:09;97334.22;;;26.19;38.24
14242;BME280;7205;50.864;12.766;2023-05-22T12:58:36;97325.31;;;26.19;38.01
14242;BME280;7205;50.864;12.766;2023-05-22T13:01:03;97325.00;;;26.20;38.43
14242;BME280;7205;50.864;12.766;2023-05-22T13:03:31;97320.91;;;26.23;38.09
14242;BME280;7205;50.864;12.766;2023-05-22T13:05:58;97320.63;;;26.24;38.39
14242;BME280;7205;50.864;12.766;2023-05-22T13:08:25;97311.97;;;26.27;38.23
14242;BME280;7205;50.864;12.766;2023-05-22T13:10:51;97304.88;;;26.31;37.93
14242;BME280;7205;50.864;12.766;2023-05-22T13:13:18;97305.94;;;26.35;37.83